Crescent City, CA

9:11 AM PDT on July 07, 2015 (GMT -0700)
Humboldt Street (Filkins Tract) | | Change Station
CLOSE
Current Station
Personal Weather Station
Location: Crescent City, CA
Elevation: 59 ft
Nearby Weather Stations

Elev 59 ft 41.76 °N, 124.21 °W | Updated 4 seconds ago

Clear
Clear
63.7 °F
Feels Like 63.7 °F
N
2.1
Wind Variable Wind from North
Gusts 8.3 mph

Today
High -- | Low -- °F
--% Chance of Precip.
Yesterday
High -- | Low -- °F
Precip. -- in
5:49 AM 8:53 PM
Waning Gibbous, 63% visible
Pressure 30.05 in
Visibility 10.0 miles
Clouds Few 900 ft
Dew Point 58 °F
Humidity 83%
Rainfall 0.00 in
Snow Depth Not available.
UV 3 out of 12
Pollen 6.00 out of 12
Air Quality Not available.
Flu Activity Not available.
METAR KCEC 071556Z AUTO 32004KT 10SM FEW009 16/13 A3005 RMK AO2 SLP176 T01560128 TSNO

More Conditions Fewer Conditions

Pressure 30.05 in
Visibility 10.0 miles
Clouds Few 900 ft
Dew Point 58 °F
Humidity 83%
Rainfall 0.00 in
Snow Depth Not available.
UV 3 out of 12
Pollen 6.00 out of 12
Air Quality Not available.
Flu Activity Not available.
METAR KCEC 071556Z AUTO 32004KT 10SM FEW009 16/13 A3005 RMK AO2 SLP176 T01560128 TSNO

More Conditions Fewer Conditions

10-Day Weather Forecast

×

Almanac

Astronomy

Jul. 07, 2015 Rise Set
Actual Time
Civil Twilight
Nautical Twilight
Astronomical Twilight
Moon
Length of Visible Light
Length of Day
Tomorrow will be .
, % of the Moon is Illuminated

Today's Extremes

State Highs State Lows

Community

WunderPhotos

Upload Photos

1,835,829 photos uploaded!

WunderBlogs® & News

Nearby

Air Quality

  Air Quality AQ Index Pollutant
Not available.

Snow Depth

Station Depth Elevation

Earthquake Activity

City Distance Mag. Time & Date
Minimum magnitude displayed is 2.5.

Coastal Water Temperatures

Place Temperature

Stations

Nearby Weather Stations

Station Location Temp. Windchill Dew Point Humidity Wind Precip. Elev Updated Type